Time;durP1;ratioP1;P1;durP2;ratioP2;P2;SDS_P1;SDS_P2;PMS_P1;PMS_P2;Temp;Humidity;BMP_temperature;BMP_pressure;BME280_temperature;BME280_humidity;BME280_pressure;Samples;Min_cycle;Max_cycle;Signal;HPM_P1;HPM_P2
2023/09/15 00:00:25;;;;;;;8.93;5.28;;;11.40;99.90;;;;;;5017254;28;20527;-70
2023/09/15 00:02:55;;;;;;;9.10;5.60;;;11.30;99.90;;;;;;5014147;28;20041;-70
2023/09/15 00:05:21;;;;;;;13.05;5.90;;;11.40;99.90;;;;;;5014689;28;20042;-70
2023/09/15 00:07:47;;;;;;;11.48;5.63;;;11.30;99.90;;;;;;4996210;28;20100;-71
2023/09/15 00:10:13;;;;;;;10.57;5.43;;;11.30;99.90;;;;;;5015641;28;20037;-70
2023/09/15 00:12:40;;;;;;;10.02;5.55;;;11.30;99.90;;;;;;5034277;28;20096;-70
2023/09/15 00:15:07;;;;;;;9.18;5.35;;;11.20;99.90;;;;;;5028229;28;20033;-71
2023/09/15 00:17:40;;;;;;;7.80;5.43;;;11.10;99.90;;;;;;4999782;28;20052;-69
2023/09/15 00:20:13;;;;;;;11.05;5.85;;;11.10;99.90;;;;;;5030854;28;20045;-70
2023/09/15 00:22:50;;;;;;;11.40;6.00;;;11.10;99.90;;;;;;5023997;28;20046;-69
2023/09/15 00:25:20;;;;;;;7.70;5.50;;;11.20;99.90;;;;;;5027062;28;20116;-70
2023/09/15 00:27:51;;;;;;;8.57;5.43;;;11.10;99.90;;;;;;5019404;28;20030;-71
2023/09/15 00:30:18;;;;;;;9.65;5.95;;;11.00;99.90;;;;;;5018895;28;20284;-71
2023/09/15 00:32:46;;;;;;;10.82;5.80;;;11.00;99.90;;;;;;5025934;28;20040;-70
2023/09/15 00:35:12;;;;;;;9.32;5.25;;;10.90;99.90;;;;;;5012149;28;20049;-70
2023/09/15 00:37:37;;;;;;;8.63;5.38;;;10.90;99.90;;;;;;5033714;28;20048;-70
2023/09/15 00:40:08;;;;;;;8.27;5.57;;;10.80;99.90;;;;;;5028785;28;20041;-71
2023/09/15 00:42:34;;;;;;;9.13;6.03;;;10.80;99.90;;;;;;5032575;28;20042;-70
2023/09/15 00:45:04;;;;;;;13.18;5.05;;;10.80;99.90;;;;;;5033638;28;20038;-70
2023/09/15 00:47:31;;;;;;;8.57;5.25;;;10.80;99.90;;;;;;5033496;28;20087;-71
2023/09/15 00:49:58;;;;;;;9.45;5.53;;;10.70;99.90;;;;;;5003899;28;20064;-71
2023/09/15 00:52:23;;;;;;;10.43;5.35;;;10.70;99.90;;;;;;5015672;28;20489;-71
2023/09/15 00:54:49;;;;;;;16.42;6.50;;;10.70;99.90;;;;;;5033705;28;20145;-70
2023/09/15 00:57:15;;;;;;;9.13;5.18;;;10.80;99.90;;;;;;5021594;28;20417;-70
2023/09/15 00:59:41;;;;;;;9.13;5.50;;;10.60;99.90;;;;;;5013365;28;20073;-70
2023/09/15 01:02:07;;;;;;;9.00;5.30;;;10.70;99.90;;;;;;5013526;28;20085;-70
2023/09/15 01:04:33;;;;;;;9.02;5.50;;;10.60;99.90;;;;;;5012713;28;20037;-70
2023/09/15 01:07:02;;;;;;;10.00;4.80;;;10.60;99.90;;;;;;5016403;28;20026;-70
2023/09/15 01:09:29;;;;;;;7.38;4.75;;;10.50;99.90;;;;;;5013073;28;20042;-71
2023/09/15 01:11:55;;;;;;;9.13;4.88;;;10.40;99.90;;;;;;5013549;28;20620;-70
2023/09/15 01:14:21;;;;;;;11.40;5.10;;;10.40;99.90;;;;;;5017967;28;20093;-69
2023/09/15 01:16:57;;;;;;;9.23;4.93;;;10.40;99.90;;;;;;4999014;28;20140;-70
2023/09/15 01:19:53;;;;;;;14.65;5.80;;;10.40;99.90;;;;;;4995772;28;20038;-70
2023/09/15 01:22:35;;;;;;;12.57;5.75;;;10.40;99.90;;;;;;5013177;28;20404;-70
2023/09/15 01:25:32;;;;;;;6.65;4.85;;;10.40;99.90;;;;;;4995597;28;20064;-70
2023/09/15 01:28:19;;;;;;;10.60;5.22;;;10.40;99.90;;;;;;5013117;28;20073;-70
2023/09/15 01:30:49;;;;;;;7.95;4.88;;;10.40;99.90;;;;;;5023431;28;20061;-70
2023/09/15 01:33:16;;;;;;;9.48;4.90;;;10.40;99.90;;;;;;5020592;28;20085;-70
2023/09/15 01:35:42;;;;;;;7.03;4.85;;;10.40;99.90;;;;;;5026565;28;20048;-70
2023/09/15 01:38:07;;;;;;;12.10;5.43;;;10.30;99.90;;;;;;5010342;28;20049;-70
2023/09/15 01:40:33;;;;;;;8.77;5.00;;;10.30;99.90;;;;;;5012298;28;20038;-70
2023/09/15 01:42:59;;;;;;;7.90;5.05;;;10.30;99.90;;;;;;4994822;28;20113;-70
2023/09/15 01:45:24;;;;;;;10.25;5.38;;;10.20;99.90;;;;;;5011314;28;20037;-70
2023/09/15 01:47:51;;;;;;;7.97;4.95;;;10.20;99.90;;;;;;5015286;28;20044;-70
2023/09/15 01:50:17;;;;;;;8.75;5.32;;;10.20;99.90;;;;;;5012387;28;20571;-70
2023/09/15 01:52:43;;;;;;;11.02;5.03;;;10.20;99.90;;;;;;5017825;28;20045;-70
2023/09/15 01:55:09;;;;;;;7.50;4.97;;;10.20;99.90;;;;;;5019678;28;20092;-71
2023/09/15 01:57:35;;;;;;;9.65;5.22;;;10.20;99.90;;;;;;5012231;28;20041;-70
2023/09/15 02:00:01;;;;;;;11.00;4.95;;;10.10;99.90;;;;;;5012566;28;20053;-70
2023/09/15 02:02:26;;;;;;;11.00;5.20;;;10.10;99.90;;;;;;5012080;28;20447;-71
2023/09/15 02:04:53;;;;;;;8.63;4.50;;;10.10;99.90;;;;;;5016333;28;20048;-70
2023/09/15 02:07:19;;;;;;;11.45;5.47;;;10.00;99.90;;;;;;4994317;28;20555;-68
2023/09/15 02:09:44;;;;;;;14.57;5.40;;;10.10;99.90;;;;;;4994615;28;20044;-69
2023/09/15 02:12:10;;;;;;;11.10;5.30;;;10.20;99.90;;;;;;5014952;28;20048;-70
2023/09/15 02:14:36;;;;;;;12.20;5.45;;;10.20;99.90;;;;;;5017292;28;20033;-71
2023/09/15 02:17:02;;;;;;;12.73;5.57;;;10.30;99.90;;;;;;5011804;28;20519;-70
2023/09/15 02:19:30;;;;;;;10.52;5.75;;;10.30;99.90;;;;;;4993785;28;20171;-71
2023/09/15 02:21:57;;;;;;;11.95;5.82;;;10.30;99.90;;;;;;5027349;28;20156;-69
2023/09/15 02:24:23;;;;;;;11.55;5.68;;;10.30;99.90;;;;;;4994893;28;20060;-68
2023/09/15 02:26:49;;;;;;;13.40;6.25;;;10.30;99.90;;;;;;5011969;28;20108;-69
2023/09/15 02:29:14;;;;;;;10.20;6.35;;;10.30;99.90;;;;;;5011378;28;20044;-70
2023/09/15 02:31:41;;;;;;;15.38;6.55;;;10.30;99.90;;;;;;5011564;28;20485;-69
2023/09/15 02:34:06;;;;;;;11.20;6.53;;;10.40;99.90;;;;;;4994353;28;20049;-70
2023/09/15 02:36:32;;;;;;;13.73;6.30;;;10.40;99.90;;;;;;4994170;28;20442;-71
2023/09/15 02:38:57;;;;;;;9.10;6.18;;;10.40;99.90;;;;;;5011988;28;20042;-71
2023/09/15 02:41:23;;;;;;;9.38;6.25;;;10.40;99.90;;;;;;5011879;28;20034;-70
2023/09/15 02:43:49;;;;;;;13.55;7.25;;;10.40;99.90;;;;;;5010635;28;20437;-70
2023/09/15 02:46:14;;;;;;;12.73;7.20;;;10.40;99.90;;;;;;5011097;28;20394;-70
2023/09/15 02:48:43;;;;;;;11.73;6.43;;;10.40;99.90;;;;;;5025260;28;20034;-70
2023/09/15 02:51:08;;;;;;;12.65;6.55;;;10.40;99.90;;;;;;5031637;28;20037;-70
2023/09/15 02:53:34;;;;;;;10.82;6.35;;;10.40;99.90;;;;;;5020612;28;20411;-71
2023/09/15 02:56:04;;;;;;;11.48;7.15;;;10.40;99.90;;;;;;4993286;28;20131;-69
2023/09/15 02:58:31;;;;;;;12.03;6.40;;;10.30;99.90;;;;;;5031648;28;20064;-68
2023/09/15 03:00:57;;;;;;;11.75;5.75;;;10.20;99.90;;;;;;5031388;28;20053;-69
2023/09/15 03:03:23;;;;;;;9.85;5.65;;;10.10;99.90;;;;;;5001148;28;20034;-70
2023/09/15 03:05:49;;;;;;;11.57;5.93;;;10.00;99.90;;;;;;5013076;28;20554;-71
2023/09/15 03:08:14;;;;;;;9.30;5.88;;;10.00;99.90;;;;;;5011832;28;20042;-70
2023/09/15 03:10:40;;;;;;;8.32;6.13;;;9.90;99.90;;;;;;4996968;28;20033;-70
2023/09/15 03:13:05;;;;;;;10.55;6.35;;;9.90;99.90;;;;;;5019111;28;20037;-70
2023/09/15 03:15:32;;;;;;;12.65;6.93;;;9.90;99.90;;;;;;4993825;28;20504;-70
2023/09/15 03:17:58;;;;;;;12.65;6.72;;;10.00;99.90;;;;;;5010592;28;20049;-69
2023/09/15 03:20:24;;;;;;;14.48;6.85;;;10.00;99.90;;;;;;5019514;28;20042;-69
2023/09/15 03:22:51;;;;;;;11.13;6.97;;;10.10;99.90;;;;;;5011097;28;20042;-69
2023/09/15 03:25:17;;;;;;;13.27;6.72;;;10.00;99.90;;;;;;5011848;28;20042;-69
2023/09/15 03:27:43;;;;;;;13.35;7.40;;;10.10;99.90;;;;;;5009732;28;20041;-69
2023/09/15 03:30:10;;;;;;;10.05;6.75;;;10.10;99.90;;;;;;5018009;28;20404;-69
2023/09/15 03:32:36;;;;;;;11.15;7.13;;;10.10;99.90;;;;;;4996906;28;20128;-69
2023/09/15 03:35:05;;;;;;;13.35;6.78;;;10.00;99.90;;;;;;5014785;28;20508;-69
2023/09/15 03:37:32;;;;;;;14.05;6.85;;;10.10;99.90;;;;;;5014842;28;20108;-69
2023/09/15 03:39:58;;;;;;;12.55;7.13;;;10.10;99.90;;;;;;5014809;28;20117;-69
2023/09/15 03:42:23;;;;;;;14.73;7.45;;;10.10;99.90;;;;;;5015118;28;20471;-70
2023/09/15 03:44:49;;;;;;;16.65;7.82;;;10.10;99.90;;;;;;5025028;28;20120;-70
2023/09/15 03:47:14;;;;;;;11.80;7.18;;;10.00;99.90;;;;;;5024317;28;20037;-70
2023/09/15 03:49:40;;;;;;;14.30;7.55;;;10.00;99.90;;;;;;5034840;28;20041;-70
2023/09/15 03:52:06;;;;;;;18.50;7.15;;;10.00;99.90;;;;;;5029958;28;20132;-70
2023/09/15 03:54:31;;;;;;;13.77;7.30;;;10.00;99.90;;;;;;5027772;28;20125;-70
2023/09/15 03:56:57;;;;;;;12.63;7.47;;;10.00;99.90;;;;;;5014542;28;20472;-70
2023/09/15 03:59:22;;;;;;;14.13;7.88;;;10.00;99.90;;;;;;5013640;28;20068;-70
2023/09/15 04:01:48;;;;;;;13.05;7.82;;;10.00;99.90;;;;;;5007533;28;20472;-70
2023/09/15 04:04:14;;;;;;;12.13;6.93;;;10.00;99.90;;;;;;5024063;28;20041;-69
2023/09/15 04:06:39;;;;;;;13.20;7.25;;;9.90;99.90;;;;;;5016703;28;20053;-69
2023/09/15 04:09:10;;;;;;;11.30;7.85;;;9.90;99.90;;;;;;5029317;28;20168;-69
2023/09/15 04:11:35;;;;;;;13.45;7.30;;;9.90;99.90;;;;;;5017609;28;20066;-69
2023/09/15 04:14:01;;;;;;;13.85;7.00;;;9.80;99.90;;;;;;5009637;28;20073;-69
2023/09/15 04:16:27;;;;;;;16.00;7.50;;;9.80;99.90;;;;;;5026740;28;20049;-69
2023/09/15 04:18:53;;;;;;;17.50;7.68;;;9.80;99.90;;;;;;5021359;28;20049;-69
2023/09/15 04:21:18;;;;;;;13.73;7.93;;;9.90;99.90;;;;;;5014161;28;20120;-69
2023/09/15 04:23:44;;;;;;;12.35;6.82;;;9.90;99.90;;;;;;5014671;28;20091;-70
2023/09/15 04:26:09;;;;;;;15.05;7.53;;;9.90;99.90;;;;;;5011957;28;20100;-70
2023/09/15 04:28:35;;;;;;;11.27;6.88;;;9.90;99.90;;;;;;5019171;28;20026;-69
2023/09/15 04:31:01;;;;;;;12.38;7.20;;;9.90;99.90;;;;;;5013800;28;20107;-69
2023/09/15 04:33:27;;;;;;;11.27;7.05;;;9.90;99.90;;;;;;5011573;28;20041;-70
2023/09/15 04:35:53;;;;;;;12.45;7.20;;;9.90;99.90;;;;;;5000281;28;20505;-69
2023/09/15 04:38:18;;;;;;;13.32;6.53;;;9.90;99.90;;;;;;5032917;28;20121;-69
2023/09/15 04:40:44;;;;;;;10.52;7.03;;;9.90;99.90;;;;;;5033992;28;20392;-69
2023/09/15 04:43:09;;;;;;;9.80;6.78;;;9.90;99.90;;;;;;5022414;28;20052;-69
2023/09/15 04:45:35;;;;;;;13.30;6.97;;;9.90;99.90;;;;;;4996203;28;20173;-69
2023/09/15 04:48:02;;;;;;;10.18;6.90;;;9.80;99.90;;;;;;5013344;28;20042;-69
2023/09/15 04:50:28;;;;;;;13.85;7.38;;;9.80;99.90;;;;;;5000203;28;20030;-69
2023/09/15 04:52:55;;;;;;;10.73;6.80;;;9.80;99.90;;;;;;5016018;28;20038;-69
2023/09/15 04:55:22;;;;;;;13.63;8.00;;;9.80;99.90;;;;;;5015911;28;20500;-69
2023/09/15 04:57:48;;;;;;;17.25;8.13;;;9.70;99.90;;;;;;4995985;28;20413;-69
2023/09/15 05:00:23;;;;;;;15.00;7.82;;;9.70;99.90;;;;;;5013480;28;20504;-70
2023/09/15 05:02:49;;;;;;;14.32;7.97;;;9.70;99.90;;;;;;4999054;28;20053;-69
2023/09/15 05:05:15;;;;;;;18.45;8.68;;;9.70;99.90;;;;;;4989751;28;20164;-69
2023/09/15 05:07:41;;;;;;;14.43;8.35;;;9.70;99.90;;;;;;5000979;28;20034;-69
2023/09/15 05:10:08;;;;;;;14.15;7.88;;;9.70;99.90;;;;;;5030207;28;20029;-70
2023/09/15 05:12:34;;;;;;;13.73;7.57;;;9.70;99.90;;;;;;5033121;28;20046;-69
2023/09/15 05:15:02;;;;;;;14.35;7.78;;;9.70;99.90;;;;;;4994817;28;20527;-70
2023/09/15 05:17:29;;;;;;;22.60;8.85;;;9.70;99.90;;;;;;5006132;28;20378;-70
2023/09/15 05:19:58;;;;;;;16.70;7.85;;;9.70;99.90;;;;;;5013427;28;20130;-69
2023/09/15 05:22:25;;;;;;;17.08;8.13;;;9.70;99.90;;;;;;5013219;28;20045;-69
2023/09/15 05:24:50;;;;;;;19.38;8.38;;;9.70;99.90;;;;;;5011801;28;20038;-70
2023/09/15 05:27:16;;;;;;;15.10;8.55;;;9.70;99.90;;;;;;5012475;28;20033;-72
2023/09/15 05:29:44;;;;;;;16.48;8.20;;;9.70;99.90;;;;;;5012803;28;20104;-69
2023/09/15 05:32:10;;;;;;;13.90;8.57;;;9.70;99.90;;;;;;5020943;28;20045;-69
2023/09/15 05:34:35;;;;;;;16.17;8.60;;;9.70;99.90;;;;;;4996874;28;20053;-69
2023/09/15 05:37:03;;;;;;;10.15;7.88;;;9.70;99.90;;;;;;5027268;28;20044;-71
2023/09/15 05:39:30;;;;;;;16.35;8.45;;;9.70;99.90;;;;;;5001931;28;20054;-71
2023/09/15 05:41:56;;;;;;;16.80;8.07;;;9.70;99.90;;;;;;4997780;28;20125;-71
2023/09/15 05:44:22;;;;;;;18.23;8.77;;;9.80;99.90;;;;;;5013186;28;20125;-71
2023/09/15 05:46:48;;;;;;;15.15;8.60;;;9.80;99.90;;;;;;5017984;28;20381;-71
2023/09/15 05:49:13;;;;;;;14.27;8.48;;;9.80;99.90;;;;;;4998503;28;20434;-71
2023/09/15 05:51:39;;;;;;;14.13;7.88;;;9.90;99.90;;;;;;5009732;28;20038;-71
2023/09/15 05:54:05;;;;;;;17.50;8.23;;;9.90;99.90;;;;;;5019747;28;20076;-69
2023/09/15 05:56:31;;;;;;;15.32;8.02;;;9.90;99.90;;;;;;4991457;28;20038;-71
2023/09/15 05:58:58;;;;;;;14.13;8.18;;;10.00;99.90;;;;;;5013189;28;20077;-68
2023/09/15 06:01:24;;;;;;;15.02;8.15;;;10.00;99.90;;;;;;5009615;28;20381;-71
2023/09/15 06:03:49;;;;;;;13.82;8.57;;;10.00;99.90;;;;;;4996061;28;20104;-71
2023/09/15 06:06:16;;;;;;;13.80;8.20;;;10.10;99.90;;;;;;5002705;28;20074;-71
2023/09/15 06:08:42;;;;;;;14.10;8.32;;;10.10;99.90;;;;;;5012053;28;20088;-69
2023/09/15 06:11:07;;;;;;;15.30;8.40;;;10.10;99.90;;;;;;5012065;28;20045;-71
2023/09/15 06:13:34;;;;;;;16.00;8.23;;;10.20;99.90;;;;;;4991286;28;20460;-69
2023/09/15 06:16:00;;;;;;;12.10;8.32;;;10.20;99.90;;;;;;5022293;23;20048;-69
2023/09/15 06:18:26;;;;;;;13.18;8.30;;;10.30;99.90;;;;;;5034101;28;20049;-69
2023/09/15 06:20:56;;;;;;;14.52;7.82;;;10.40;99.90;;;;;;5037225;28;20037;-72
2023/09/15 06:23:22;;;;;;;10.65;7.88;;;10.40;99.90;;;;;;5047283;28;20052;-72
2023/09/15 06:25:48;;;;;;;15.95;8.05;;;10.40;99.90;;;;;;5035370;28;20041;-70
2023/09/15 06:28:14;;;;;;;14.13;8.98;;;10.50;99.90;;;;;;5048697;28;20260;-71
2023/09/15 06:30:39;;;;;;;15.73;8.98;;;10.50;99.90;;;;;;4997308;28;20515;-71
2023/09/15 06:33:05;;;;;;;15.52;8.88;;;10.60;99.90;;;;;;5025562;28;20040;-71
2023/09/15 06:35:31;;;;;;;16.30;8.82;;;10.70;99.90;;;;;;5029495;28;20132;-71
2023/09/15 06:37:56;;;;;;;16.58;9.30;;;10.80;99.90;;;;;;5031061;28;20045;-70
2023/09/15 06:40:22;;;;;;;16.33;8.10;;;10.80;99.90;;;;;;5002121;28;20033;-70
2023/09/15 06:42:47;;;;;;;16.33;9.18;;;11.00;99.90;;;;;;5015230;28;20060;-70
2023/09/15 06:45:13;;;;;;;19.88;9.43;;;11.00;99.90;;;;;;5020892;28;20042;-70
2023/09/15 06:47:39;;;;;;;16.30;9.27;;;11.10;99.90;;;;;;4999658;28;20033;-70
2023/09/15 06:50:05;;;;;;;18.60;9.63;;;11.10;99.90;;;;;;5021419;28;20171;-70
2023/09/15 06:52:31;;;;;;;11.52;8.43;;;11.20;99.90;;;;;;5021848;28;20049;-71
2023/09/15 06:54:56;;;;;;;15.30;9.23;;;11.30;99.90;;;;;;5030525;28;20380;-70
2023/09/15 06:57:23;;;;;;;19.20;9.82;;;11.40;99.90;;;;;;5007564;28;20446;-69
2023/09/15 06:59:49;;;;;;;15.43;9.13;;;11.50;99.90;;;;;;5025483;28;20047;-70
2023/09/15 07:02:14;;;;;;;17.40;9.82;;;11.60;99.90;;;;;;5031000;28;20038;-70
2023/09/15 07:04:40;;;;;;;15.90;9.52;;;11.70;99.90;;;;;;5025034;28;20399;-70
2023/09/15 07:07:05;;;;;;;17.27;10.15;;;11.80;99.90;;;;;;5031857;28;20112;-71
2023/09/15 07:09:31;;;;;;;16.13;9.30;;;11.90;99.90;;;;;;5036772;28;20179;-71
2023/09/15 07:11:56;;;;;;;14.27;9.63;;;12.00;99.90;;;;;;5034363;28;20049;-71
2023/09/15 07:14:22;;;;;;;21.77;11.48;;;12.00;99.90;;;;;;5030090;28;20049;-70
2023/09/15 07:16:48;;;;;;;16.98;9.20;;;12.10;99.90;;;;;;5027745;28;20038;-71
2023/09/15 07:19:14;;;;;;;14.68;9.07;;;12.10;99.90;;;;;;5030896;28;20045;-70
2023/09/15 07:21:41;;;;;;;16.20;9.65;;;12.20;99.90;;;;;;5032533;28;20025;-71
2023/09/15 07:24:11;;;;;;;12.38;9.18;;;12.30;99.90;;;;;;5044324;28;20037;-71
2023/09/15 07:26:37;;;;;;;16.35;8.93;;;12.40;99.90;;;;;;5044569;28;20049;-69
2023/09/15 07:29:03;;;;;;;16.27;9.73;;;12.50;99.90;;;;;;5019457;28;20100;-70
2023/09/15 07:31:34;;;;;;;19.20;9.30;;;12.50;99.90;;;;;;5035786;28;20479;-70
2023/09/15 07:34:00;;;;;;;17.52;9.32;;;12.60;99.90;;;;;;5032650;28;20091;-70
2023/09/15 07:36:26;;;;;;;17.60;9.18;;;12.70;99.90;;;;;;5001991;28;20045;-71
2023/09/15 07:38:52;;;;;;;16.73;9.15;;;12.70;99.90;;;;;;5000774;28;20060;-70
2023/09/15 07:41:18;;;;;;;13.55;9.27;;;12.80;99.90;;;;;;5014488;28;20046;-68
2023/09/15 07:43:44;;;;;;;18.65;9.20;;;12.90;99.90;;;;;;5038268;28;20036;-69
2023/09/15 07:46:09;;;;;;;15.68;9.30;;;12.90;99.90;;;;;;5057032;28;20037;-70
2023/09/15 07:48:35;;;;;;;16.98;9.27;;;13.00;99.90;;;;;;5057863;28;20516;-70
2023/09/15 07:51:00;;;;;;;19.85;9.25;;;13.10;99.90;;;;;;5030221;28;20388;-70
2023/09/15 07:53:26;;;;;;;14.55;8.57;;;13.10;99.90;;;;;;5024409;28;20041;-72
2023/09/15 07:55:52;;;;;;;12.52;8.57;;;13.20;99.90;;;;;;5030160;28;20041;-69
2023/09/15 07:58:17;;;;;;;14.68;8.50;;;13.30;99.90;;;;;;5037404;28;20049;-71
2023/09/15 08:00:43;;;;;;;16.65;9.18;;;13.40;99.90;;;;;;5034454;28;20395;-70
2023/09/15 08:03:08;;;;;;;17.50;9.18;;;13.60;99.90;;;;;;5000022;28;20037;-71
2023/09/15 08:05:34;;;;;;;20.90;8.85;;;13.70;99.90;;;;;;5040262;28;20502;-71
2023/09/15 08:08:00;;;;;;;12.95;8.40;;;13.80;99.90;;;;;;5053990;28;20398;-71
2023/09/15 08:10:26;;;;;;;12.73;7.82;;;13.90;99.90;;;;;;5031427;28;20034;-71
2023/09/15 08:12:55;;;;;;;13.55;8.50;;;14.00;99.90;;;;;;5043058;28;20043;-70
2023/09/15 08:15:21;;;;;;;14.77;8.63;;;14.00;99.90;;;;;;5036043;28;20487;-69
2023/09/15 08:17:47;;;;;;;11.90;7.82;;;14.10;99.90;;;;;;5032719;28;20132;-70
2023/09/15 08:20:14;;;;;;;12.27;7.95;;;14.20;99.90;;;;;;5012112;28;20092;-70
2023/09/15 08:22:39;;;;;;;15.18;8.63;;;14.30;99.90;;;;;;5033836;28;20487;-69
2023/09/15 08:25:06;;;;;;;14.70;8.55;;;14.40;99.90;;;;;;5019890;28;20128;-70
2023/09/15 08:27:32;;;;;;;15.60;8.82;;;14.50;99.90;;;;;;5011569;28;20091;-69
2023/09/15 08:29:58;;;;;;;13.40;8.52;;;14.50;99.90;;;;;;5021868;28;20033;-69
2023/09/15 08:32:24;;;;;;;14.18;8.73;;;14.60;99.90;;;;;;5033718;28;20041;-69
2023/09/15 08:34:49;;;;;;;15.73;8.45;;;14.70;99.90;;;;;;5031024;28;20051;-69
2023/09/15 08:37:15;;;;;;;17.58;8.48;;;14.70;99.90;;;;;;5025697;28;20120;-71
2023/09/15 08:39:41;;;;;;;14.23;8.30;;;14.80;99.90;;;;;;5034171;28;20038;-69
2023/09/15 08:42:28;;;;;;;13.35;8.20;;;14.90;99.90;;;;;;5033957;28;20032;-69
2023/09/15 08:44:58;;;;;;;13.88;8.15;;;15.00;99.90;;;;;;5018458;28;20037;-69
2023/09/15 08:47:27;;;;;;;12.52;7.75;;;15.10;99.90;;;;;;5023303;28;20052;-70
2023/09/15 08:49:54;;;;;;;9.77;6.82;;;15.20;99.90;;;;;;5028797;28;20427;-69
2023/09/15 08:52:20;;;;;;;15.65;7.35;;;15.30;99.90;;;;;;5026836;28;20076;-70
2023/09/15 08:54:45;;;;;;;17.10;7.38;;;15.40;99.90;;;;;;5032001;28;20057;-71
2023/09/15 08:57:11;;;;;;;11.60;6.88;;;15.40;99.90;;;;;;5030632;28;20072;-70
2023/09/15 08:59:38;;;;;;;10.63;7.10;;;15.60;99.90;;;;;;5019011;28;20516;-69
2023/09/15 09:02:04;;;;;;;15.35;6.85;;;15.60;99.90;;;;;;5022194;28;20124;-69
2023/09/15 09:04:29;;;;;;;10.88;6.85;;;15.80;99.90;;;;;;5023217;28;20618;-70
2023/09/15 09:06:58;;;;;;;12.98;7.07;;;15.80;99.90;;;;;;5033349;28;20507;-69
2023/09/15 09:09:24;;;;;;;9.80;6.18;;;15.90;99.90;;;;;;5020729;28;20056;-69
2023/09/15 09:11:50;;;;;;;11.55;6.00;;;16.00;99.90;;;;;;5027766;28;20029;-69
2023/09/15 09:14:16;;;;;;;13.38;6.15;;;16.10;99.90;;;;;;5033301;28;20037;-70
2023/09/15 09:16:42;;;;;;;12.38;6.10;;;16.20;99.90;;;;;;5018355;28;20041;-69
2023/09/15 09:19:08;;;;;;;13.23;6.10;;;16.40;99.90;;;;;;5017078;28;20130;-69
2023/09/15 09:21:34;;;;;;;10.60;6.00;;;16.40;99.90;;;;;;5020901;28;20034;-69
2023/09/15 09:24:00;;;;;;;11.40;5.55;;;16.50;99.90;;;;;;5029113;28;20043;-69
2023/09/15 09:26:26;;;;;;;11.73;5.60;;;16.60;99.90;;;;;;5013110;28;20042;-69
2023/09/15 09:28:59;;;;;;;11.10;6.05;;;16.70;99.90;;;;;;4989502;28;20057;-69
2023/09/15 09:31:26;;;;;;;16.42;6.45;;;16.70;99.90;;;;;;5025483;28;20148;-69
2023/09/15 09:33:56;;;;;;;13.75;6.60;;;16.80;99.90;;;;;;5023931;28;20042;-70
2023/09/15 09:36:21;;;;;;;11.60;5.75;;;16.80;99.90;;;;;;5030683;28;20077;-69
2023/09/15 09:38:50;;;;;;;12.05;5.22;;;16.90;99.90;;;;;;5017078;28;20076;-68
2023/09/15 09:41:18;;;;;;;12.18;5.25;;;17.00;99.90;;;;;;5025098;28;20038;-69
2023/09/15 09:43:48;;;;;;;10.52;5.43;;;17.00;99.90;;;;;;5032263;28;20084;-69
2023/09/15 09:46:17;;;;;;;8.82;5.43;;;17.10;99.90;;;;;;5032359;28;20045;-70
2023/09/15 09:48:44;;;;;;;7.32;4.28;;;17.20;99.90;;;;;;5006648;28;20104;-70
2023/09/15 09:51:12;;;;;;;8.40;3.97;;;17.20;99.90;;;;;;5018648;28;20150;-70
2023/09/15 09:53:37;;;;;;;8.43;4.18;;;17.20;99.90;;;;;;5028862;28;20033;-69
2023/09/15 09:56:07;;;;;;;11.07;4.40;;;17.20;99.90;;;;;;5032424;28;20087;-70
2023/09/15 09:58:35;;;;;;;8.13;3.65;;;17.40;99.90;;;;;;5031132;28;20041;-69
2023/09/15 10:01:04;;;;;;;12.02;4.68;;;17.40;99.90;;;;;;5020230;28;20047;-68
2023/09/15 10:03:29;;;;;;;8.57;3.63;;;17.50;99.90;;;;;;5032123;28;20507;-69
2023/09/15 10:05:56;;;;;;;8.95;3.95;;;17.60;99.90;;;;;;5032350;28;20124;-70
2023/09/15 10:08:21;;;;;;;9.48;4.03;;;17.70;99.90;;;;;;5027150;28;20048;-71
2023/09/15 10:10:49;;;;;;;10.50;4.55;;;17.70;99.90;;;;;;5026717;28;20073;-72
2023/09/15 10:13:16;;;;;;;10.18;4.72;;;17.80;99.90;;;;;;5032144;28;20060;-70
2023/09/15 10:15:43;;;;;;;6.70;3.75;;;17.90;99.90;;;;;;5025304;28;20049;-69
2023/09/15 10:18:12;;;;;;;7.63;4.05;;;18.00;99.90;;;;;;5025187;28;20042;-70
2023/09/15 10:20:39;;;;;;;6.82;3.65;;;18.00;99.90;;;;;;5031856;28;20049;-70
2023/09/15 10:23:06;;;;;;;6.65;3.63;;;18.10;99.90;;;;;;5027517;28;20438;-69
2023/09/15 10:26:02;;;;;;;9.77;3.47;;;18.20;99.90;;;;;;5022535;28;20041;-69
2023/09/15 10:28:29;;;;;;;9.38;3.60;;;18.20;99.90;;;;;;5007552;28;20071;-70
2023/09/15 10:30:55;;;;;;;9.02;3.13;;;18.30;99.90;;;;;;5020861;28;20033;-70
2023/09/15 10:33:25;;;;;;;9.95;3.47;;;18.30;99.90;;;;;;5031739;28;20037;-70
2023/09/15 10:35:51;;;;;;;8.55;3.75;;;18.40;99.90;;;;;;5021816;28;20685;-70
2023/09/15 10:38:27;;;;;;;8.18;3.88;;;18.40;99.90;;;;;;5025075;28;20049;-70
2023/09/15 10:40:54;;;;;;;9.73;4.13;;;18.50;99.90;;;;;;5022537;28;20042;-69
2023/09/15 10:43:20;;;;;;;6.75;4.00;;;18.70;99.90;;;;;;5026886;28;20052;-69
2023/09/15 10:45:57;;;;;;;11.23;3.85;;;18.70;99.90;;;;;;5024587;28;20053;-69
2023/09/15 10:48:35;;;;;;;11.27;4.45;;;18.70;99.90;;;;;;5022380;28;20120;-70
2023/09/15 10:51:07;;;;;;;10.88;3.92;;;18.80;99.90;;;;;;5027498;28;20053;-70
2023/09/15 10:53:50;;;;;;;8.73;3.78;;;18.80;99.90;;;;;;5024285;28;20080;-71
2023/09/15 10:56:17;;;;;;;13.30;3.60;;;18.90;99.90;;;;;;5027859;28;20052;-71
2023/09/15 10:58:47;;;;;;;6.80;3.47;;;19.00;99.90;;;;;;5017336;28;20037;-70
2023/09/15 11:01:14;;;;;;;9.05;3.85;;;19.00;99.90;;;;;;5023014;28;20050;-71
2023/09/15 11:03:41;;;;;;;10.32;3.83;;;19.20;99.90;;;;;;5031565;28;20040;-71
2023/09/15 11:06:10;;;;;;;9.68;3.63;;;19.30;99.90;;;;;;5031316;28;20033;-71
2023/09/15 11:08:36;;;;;;;10.25;3.78;;;19.30;99.90;;;;;;5021028;28;20079;-70
2023/09/15 11:11:04;;;;;;;8.43;3.67;;;19.40;99.90;;;;;;5021349;28;20061;-71
2023/09/15 11:13:31;;;;;;;6.28;3.35;;;19.50;99.90;;;;;;5028483;28;20491;-71
2023/09/15 11:15:56;;;;;;;4.72;3.30;;;19.60;99.90;;;;;;5029727;28;20041;-71
2023/09/15 11:18:22;;;;;;;6.90;3.63;;;19.70;99.90;;;;;;5020714;28;20440;-71
2023/09/15 11:20:48;;;;;;;7.65;3.50;;;19.60;99.90;;;;;;5013971;28;20046;-71
2023/09/15 11:23:17;;;;;;;8.32;3.53;;;19.80;99.90;;;;;;5026717;28;20120;-71
2023/09/15 11:25:43;;;;;;;7.20;3.60;;;19.80;99.90;;;;;;5028345;28;20037;-71
2023/09/15 11:28:15;;;;;;;8.70;3.58;;;19.80;99.90;;;;;;5030725;28;20045;-71
2023/09/15 11:30:45;;;;;;;7.60;3.70;;;19.90;99.90;;;;;;5025860;28;20042;-71
2023/09/15 11:33:12;;;;;;;9.45;3.70;;;20.00;99.90;;;;;;5022275;28;20042;-71
2023/09/15 11:35:37;;;;;;;5.00;2.85;;;20.10;99.90;;;;;;5027622;28;20041;-71
2023/09/15 11:38:03;;;;;;;8.27;3.40;;;20.20;99.90;;;;;;5013365;28;20120;-71
2023/09/15 11:40:29;;;;;;;8.30;3.58;;;20.30;99.90;;;;;;5018877;28;20095;-71
2023/09/15 11:43:01;;;;;;;10.18;3.60;;;20.30;99.90;;;;;;5030565;28;20558;-71
2023/09/15 11:45:31;;;;;;;7.38;3.38;;;20.40;99.90;;;;;;5011476;28;20133;-71
2023/09/15 11:47:58;;;;;;;5.63;2.88;;;20.50;99.90;;;;;;5009003;28;20472;-71
2023/09/15 11:50:25;;;;;;;9.95;3.60;;;20.50;99.90;;;;;;5028055;28;20394;-71
2023/09/15 11:52:52;;;;;;;5.20;2.80;;;20.70;99.90;;;;;;5030935;28;20407;-71
2023/09/15 11:55:22;;;;;;;9.10;3.30;;;20.70;99.90;;;;;;5033418;28;20077;-71
2023/09/15 11:57:50;;;;;;;8.68;3.47;;;20.60;99.90;;;;;;5022296;28;20109;-70
2023/09/15 12:00:20;;;;;;;9.50;3.63;;;20.60;99.90;;;;;;5029792;28;20038;-71
2023/09/15 12:02:47;;;;;;;10.00;3.40;;;20.60;99.90;;;;;;5028054;28;20077;-71
2023/09/15 12:05:18;;;;;;;6.90;3.40;;;20.60;99.90;;;;;;5013344;28;20555;-72
2023/09/15 12:07:44;;;;;;;;;;;20.80;99.90;;;;;;5033631;28;20057;-70
2023/09/15 12:10:17;;;;;;;8.00;3.95;;;20.90;99.90;;;;;;5034655;28;19964;-71
2023/09/15 12:12:47;;;;;;;8.23;3.65;;;21.00;99.90;;;;;;5034522;28;20083;-71
2023/09/15 12:15:16;;;;;;;7.95;3.33;;;21.10;99.90;;;;;;5026570;28;20069;-71
2023/09/15 12:17:45;;;;;;;9.10;3.97;;;21.10;99.90;;;;;;5058936;23;20489;-69
2023/09/15 12:20:12;;;;;;;11.77;4.20;;;21.20;99.90;;;;;;5001333;28;20410;-68
2023/09/15 12:22:42;;;;;;;6.63;3.45;;;21.40;99.90;;;;;;5008438;28;20049;-69
2023/09/15 12:25:15;;;;;;;6.05;3.55;;;21.40;99.90;;;;;;4995127;28;20037;-69
2023/09/15 12:27:42;;;;;;;6.28;3.65;;;21.50;99.90;;;;;;4980191;28;20520;-71
2023/09/15 12:30:09;;;;;;;9.93;3.95;;;21.50;99.90;;;;;;5004095;28;20095;-72
2023/09/15 12:32:35;;;;;;;9.32;3.67;;;21.50;99.90;;;;;;4997201;28;20121;-70
2023/09/15 12:35:05;;;;;;;9.05;3.75;;;21.60;99.90;;;;;;4984219;28;20125;-72
2023/09/15 12:37:32;;;;;;;7.35;3.92;;;21.60;99.90;;;;;;4991527;28;20530;-70
2023/09/15 12:39:58;;;;;;;7.75;3.70;;;21.50;99.90;;;;;;5008543;28;20081;-69